Time;durP1;ratioP1;P1;durP2;ratioP2;P2;SDS_P1;SDS_P2;PMS_P1;PMS_P2;Temp;Humidity;BMP_temperature;BMP_pressure;BME280_temperature;BME280_humidity;BME280_pressure;Samples;Min_cycle;Max_cycle;Signal;HPM_P1;HPM_P2
2023/08/28 00:00:35;;;;;;;3.63;2.20;;;15.40;99.90;;;;;;4979420;28;20289;-35
2023/08/28 00:03:01;;;;;;;5.80;2.60;;;15.30;99.90;;;;;;4978812;28;20183;-34
2023/08/28 00:05:31;;;;;;;3.40;2.47;;;15.20;99.90;;;;;;4994419;28;20187;-34
2023/08/28 00:07:57;;;;;;;2.57;2.13;;;15.30;99.90;;;;;;4978497;28;20186;-34
2023/08/28 00:10:27;;;;;;;3.00;1.90;;;15.20;99.90;;;;;;4979108;28;20290;-34
2023/08/28 00:12:53;;;;;;;4.53;2.20;;;15.30;99.90;;;;;;4996265;28;20712;-34
2023/08/28 00:15:20;;;;;;;2.20;2.00;;;15.20;99.90;;;;;;4997274;28;20187;-34
2023/08/28 00:17:48;;;;;;;4.47;2.17;;;15.20;99.90;;;;;;4986889;28;20210;-34
2023/08/28 00:20:16;;;;;;;2.97;2.33;;;15.30;99.90;;;;;;4960246;28;20215;-35
2023/08/28 00:22:42;;;;;;;2.50;2.13;;;15.30;99.90;;;;;;4986709;28;20211;-35
2023/08/28 00:25:08;;;;;;;4.23;2.10;;;15.30;99.90;;;;;;4986784;28;20213;-35
2023/08/28 00:27:34;;;;;;;7.20;2.73;;;15.30;99.90;;;;;;4994562;28;20199;-35
2023/08/28 00:30:01;;;;;;;5.57;2.57;;;15.30;99.90;;;;;;4982045;28;20340;-35
2023/08/28 00:32:27;;;;;;;3.90;2.40;;;15.30;99.90;;;;;;4981402;28;20190;-34
2023/08/28 00:34:54;;;;;;;5.13;2.47;;;15.30;99.90;;;;;;4999831;28;20206;-35
2023/08/28 00:37:20;;;;;;;3.93;2.10;;;15.30;99.90;;;;;;4993908;28;20214;-35
2023/08/28 00:39:46;;;;;;;5.50;2.20;;;15.30;99.90;;;;;;4998852;28;20202;-35
2023/08/28 00:42:12;;;;;;;5.23;2.40;;;15.40;99.90;;;;;;4997416;28;20176;-35
2023/08/28 00:44:38;;;;;;;4.03;2.17;;;15.40;99.90;;;;;;4977328;28;20175;-35
2023/08/28 00:47:06;;;;;;;3.57;2.43;;;15.40;99.90;;;;;;4994491;28;20193;-34
2023/08/28 00:49:33;;;;;;;4.27;2.20;;;15.40;99.90;;;;;;4994029;28;20191;-35
2023/08/28 00:52:00;;;;;;;3.47;2.50;;;15.30;99.90;;;;;;4978553;28;20175;-35
2023/08/28 00:54:26;;;;;;;3.77;2.10;;;15.30;99.90;;;;;;4978543;28;20677;-35
2023/08/28 00:56:54;;;;;;;4.93;2.30;;;15.30;99.90;;;;;;4977725;28;20214;-35
2023/08/28 00:59:20;;;;;;;3.57;2.30;;;15.30;99.90;;;;;;4992938;28;20199;-35
2023/08/28 01:01:47;;;;;;;4.83;2.40;;;15.40;99.90;;;;;;4994723;28;20164;-35
2023/08/28 01:04:13;;;;;;;3.23;2.20;;;15.40;99.90;;;;;;4980467;28;20171;-35
2023/08/28 01:06:59;;;;;;;5.50;2.20;;;15.40;99.90;;;;;;4973128;28;20183;-35
2023/08/28 01:09:37;;;;;;;5.00;2.23;;;15.40;99.90;;;;;;4976425;28;20274;-35
2023/08/28 01:12:56;;;;;;;3.03;2.00;;;15.30;99.90;;;;;;4978245;28;20630;-35
2023/08/28 01:15:24;;;;;;;3.27;1.73;;;15.30;99.90;;;;;;4956861;28;20191;-35
2023/08/28 01:18:00;;;;;;;3.60;2.00;;;15.30;99.90;;;;;;4974473;28;20214;-35
2023/08/28 01:20:31;;;;;;;4.40;2.00;;;15.30;99.90;;;;;;4977700;28;20270;-35
2023/08/28 01:23:26;;;;;;;1.93;1.83;;;15.30;99.90;;;;;;4977679;28;20226;-35
2023/08/28 01:25:53;;;;;;;3.53;2.20;;;15.30;99.90;;;;;;4980478;28;20206;-35
2023/08/28 01:28:24;;;;;;;3.30;2.43;;;15.30;99.90;;;;;;5009187;28;20191;-35
2023/08/28 01:30:51;;;;;;;2.33;1.90;;;15.20;99.90;;;;;;4994133;28;20206;-35
2023/08/28 01:33:18;;;;;;;4.73;2.13;;;15.20;99.90;;;;;;4977650;28;20178;-35
2023/08/28 01:35:53;;;;;;;2.80;1.87;;;15.20;99.90;;;;;;4974366;28;20188;-35
2023/08/28 01:38:25;;;;;;;4.10;2.03;;;15.20;99.90;;;;;;4959179;28;20211;-35
2023/08/28 01:41:05;;;;;;;3.33;2.20;;;15.20;99.90;;;;;;4977516;28;20241;-35
2023/08/28 01:43:36;;;;;;;3.77;2.00;;;15.20;99.90;;;;;;4990400;28;20183;-35
2023/08/28 01:46:02;;;;;;;2.43;2.23;;;15.20;99.90;;;;;;4989649;28;20271;-35
2023/08/28 01:48:28;;;;;;;2.37;2.17;;;15.10;99.90;;;;;;4976371;28;20183;-35
2023/08/28 01:50:54;;;;;;;2.77;2.00;;;15.20;99.90;;;;;;4990952;28;20234;-35
2023/08/28 01:53:25;;;;;;;2.63;2.20;;;15.10;99.90;;;;;;5003560;28;20251;-35
2023/08/28 01:56:07;;;;;;;3.00;2.20;;;15.10;99.90;;;;;;4993702;28;20179;-35
2023/08/28 01:58:37;;;;;;;3.90;2.60;;;15.10;99.90;;;;;;4973825;28;20206;-35
2023/08/28 02:01:03;;;;;;;5.43;2.03;;;15.10;99.90;;;;;;4974261;28;20291;-35
2023/08/28 02:03:30;;;;;;;4.40;2.30;;;15.10;99.90;;;;;;4967753;28;20277;-35
2023/08/28 02:05:56;;;;;;;3.97;2.87;;;15.20;99.90;;;;;;4974288;28;20271;-34
2023/08/28 02:08:22;;;;;;;6.57;2.37;;;15.10;99.90;;;;;;4969941;28;20255;-35
2023/08/28 02:10:48;;;;;;;4.30;2.30;;;15.10;99.90;;;;;;4980822;28;20227;-35
2023/08/28 02:13:14;;;;;;;4.30;2.70;;;15.10;99.90;;;;;;4971350;28;20207;-35
2023/08/28 02:15:40;;;;;;;3.70;2.60;;;15.10;99.90;;;;;;4977005;28;20222;-35
2023/08/28 02:18:07;;;;;;;2.80;2.60;;;15.10;99.90;;;;;;4984999;28;20192;-35
2023/08/28 02:20:33;;;;;;;5.47;3.20;;;15.10;99.90;;;;;;4959756;28;20302;-35
2023/08/28 02:22:59;;;;;;;3.60;2.40;;;15.10;99.90;;;;;;4985151;28;20266;-35
2023/08/28 02:25:25;;;;;;;5.87;2.47;;;15.00;99.90;;;;;;4975939;28;20175;-35
2023/08/28 02:27:51;;;;;;;2.53;2.30;;;15.00;99.90;;;;;;4979497;28;20191;-35
2023/08/28 02:30:17;;;;;;;2.87;2.67;;;15.00;99.90;;;;;;4989001;28;20203;-35
2023/08/28 02:32:44;;;;;;;3.03;2.60;;;15.00;99.90;;;;;;4985473;28;20179;-35
2023/08/28 02:35:11;;;;;;;2.87;2.67;;;15.00;99.90;;;;;;4962547;28;20184;-35
2023/08/28 02:37:38;;;;;;;2.60;2.30;;;15.00;99.90;;;;;;4979471;28;20302;-35
2023/08/28 02:40:05;;;;;;;2.63;2.43;;;15.00;99.90;;;;;;4976932;28;20231;-35
2023/08/28 02:42:31;;;;;;;2.87;2.30;;;15.00;99.90;;;;;;4975170;28;20184;-35
2023/08/28 02:44:56;;;;;;;3.30;2.37;;;15.00;99.90;;;;;;4980831;28;20238;-35
2023/08/28 02:47:22;;;;;;;2.70;2.50;;;15.00;99.90;;;;;;4991694;28;20188;-35
2023/08/28 02:49:50;;;;;;;3.00;2.70;;;15.00;99.90;;;;;;4978515;28;20200;-35
2023/08/28 02:52:16;;;;;;;5.97;3.13;;;15.00;99.90;;;;;;4977434;28;20192;-35
2023/08/28 02:54:42;;;;;;;5.37;3.17;;;15.00;99.90;;;;;;4996659;28;20194;-35
2023/08/28 02:57:09;;;;;;;5.90;3.23;;;15.00;99.90;;;;;;4979556;28;20207;-35
2023/08/28 02:59:35;;;;;;;4.97;3.40;;;15.00;99.90;;;;;;4980320;28;20241;-35
2023/08/28 03:02:01;;;;;;;3.17;2.97;;;15.00;99.90;;;;;;4996291;28;20210;-35
2023/08/28 03:04:27;;;;;;;3.33;3.03;;;14.90;99.90;;;;;;4978293;28;20183;-35
2023/08/28 03:06:52;;;;;;;3.60;3.07;;;14.90;99.90;;;;;;4979417;28;20195;-35
2023/08/28 03:09:18;;;;;;;2.77;2.50;;;14.90;99.90;;;;;;4976687;28;20176;-35
2023/08/28 03:11:45;;;;;;;3.80;2.63;;;14.90;99.90;;;;;;4979009;28;20184;-35
2023/08/28 03:14:10;;;;;;;3.73;2.37;;;15.00;99.90;;;;;;4978798;28;20179;-35
2023/08/28 03:16:36;;;;;;;2.70;2.50;;;15.00;99.90;;;;;;4987789;28;20182;-35
2023/08/28 03:19:03;;;;;;;3.27;2.50;;;15.00;99.90;;;;;;4976491;28;20184;-35
2023/08/28 03:21:29;;;;;;;3.73;2.60;;;15.00;99.90;;;;;;4979068;28;20187;-35
2023/08/28 03:23:55;;;;;;;3.27;2.50;;;14.90;99.90;;;;;;4980244;28;20189;-35
2023/08/28 03:26:21;;;;;;;2.50;2.30;;;14.90;99.90;;;;;;4979579;28;20183;-35
2023/08/28 03:28:47;;;;;;;2.80;2.50;;;15.00;99.90;;;;;;4999605;28;20233;-35
2023/08/28 03:31:13;;;;;;;4.30;2.80;;;14.90;99.90;;;;;;4976475;28;20208;-35
2023/08/28 03:33:39;;;;;;;3.87;2.40;;;14.90;99.90;;;;;;4994798;28;20187;-35
2023/08/28 03:36:05;;;;;;;2.93;2.50;;;14.90;99.90;;;;;;4978633;28;20184;-35
2023/08/28 03:38:31;;;;;;;2.97;2.60;;;15.00;99.90;;;;;;4977381;28;20212;-35
2023/08/28 03:40:58;;;;;;;3.83;2.67;;;15.00;99.90;;;;;;4976533;28;20279;-35
2023/08/28 03:43:25;;;;;;;2.80;2.60;;;15.00;99.90;;;;;;4975890;28;20191;-35
2023/08/28 03:45:50;;;;;;;3.17;2.80;;;15.00;99.90;;;;;;4995415;28;20176;-35
2023/08/28 03:48:16;;;;;;;3.30;3.00;;;15.00;99.90;;;;;;4978761;28;20179;-35
2023/08/28 03:50:42;;;;;;;3.10;2.80;;;15.00;99.90;;;;;;4979217;28;20243;-35
2023/08/28 03:53:08;;;;;;;3.07;2.60;;;15.00;99.90;;;;;;4987543;28;20190;-35
2023/08/28 03:55:34;;;;;;;4.23;2.97;;;15.00;99.90;;;;;;4983177;28;20202;-35
2023/08/28 03:58:02;;;;;;;3.70;2.80;;;15.00;99.90;;;;;;4978348;28;20681;-36
2023/08/28 04:00:28;;;;;;;2.77;2.57;;;15.00;99.90;;;;;;4995085;28;20205;-35
2023/08/28 04:02:54;;;;;;;3.03;2.77;;;14.90;99.90;;;;;;4987211;28;20241;-35
2023/08/28 04:05:21;;;;;;;3.17;2.67;;;14.90;99.90;;;;;;4995157;28;20171;-35
2023/08/28 04:07:49;;;;;;;2.87;2.67;;;14.90;99.90;;;;;;4977311;28;20198;-35
2023/08/28 04:10:15;;;;;;;2.93;2.33;;;14.90;99.90;;;;;;4999608;28;20195;-35
2023/08/28 04:12:41;;;;;;;2.60;2.40;;;14.90;99.90;;;;;;4992462;28;20241;-35
2023/08/28 04:15:08;;;;;;;6.03;2.77;;;14.80;99.90;;;;;;4970007;28;20183;-36
2023/08/28 04:17:34;;;;;;;2.50;2.30;;;14.80;99.90;;;;;;4994807;28;20374;-36
2023/08/28 04:20:09;;;;;;;3.37;2.50;;;14.80;99.90;;;;;;4977502;28;20211;-34
2023/08/28 04:22:36;;;;;;;3.03;2.47;;;14.80;99.90;;;;;;4961572;28;20226;-34
2023/08/28 04:25:03;;;;;;;2.90;2.60;;;14.70;99.90;;;;;;4993577;28;20187;-34
2023/08/28 04:27:29;;;;;;;5.70;2.40;;;14.80;99.90;;;;;;4983513;28;20191;-35
2023/08/28 04:29:58;;;;;;;3.47;3.13;;;14.80;99.90;;;;;;4983177;28;20231;-35
2023/08/28 04:32:24;;;;;;;7.60;3.57;;;14.90;99.90;;;;;;4976644;28;20188;-34
2023/08/28 04:34:50;;;;;;;3.93;3.30;;;14.80;99.90;;;;;;4994884;28;20183;-34
2023/08/28 04:37:16;;;;;;;4.13;3.80;;;14.80;99.90;;;;;;4993213;28;20256;-33
2023/08/28 04:39:43;;;;;;;3.73;3.43;;;14.80;99.90;;;;;;5004287;28;20222;-35
2023/08/28 04:42:10;;;;;;;3.57;3.10;;;14.90;99.90;;;;;;4994047;28;20209;-34
2023/08/28 04:44:38;;;;;;;3.77;3.30;;;14.90;99.90;;;;;;4976463;28;20238;-35
2023/08/28 04:47:04;;;;;;;3.80;3.50;;;14.90;99.90;;;;;;4986247;28;20282;-35
2023/08/28 04:49:30;;;;;;;3.03;2.73;;;14.90;99.90;;;;;;4975412;28;20207;-34
2023/08/28 04:51:56;;;;;;;3.43;3.00;;;14.90;99.90;;;;;;4986456;28;20179;-35
2023/08/28 04:54:22;;;;;;;4.63;3.17;;;14.90;99.90;;;;;;4977496;28;20194;-35
2023/08/28 04:56:48;;;;;;;6.90;3.30;;;14.90;99.90;;;;;;4978053;28;20191;-34
2023/08/28 04:59:14;;;;;;;3.40;2.97;;;14.90;99.90;;;;;;4989475;28;20254;-35
2023/08/28 05:01:40;;;;;;;5.60;3.50;;;14.90;99.90;;;;;;4978420;28;20180;-35
2023/08/28 05:04:06;;;;;;;3.93;3.53;;;14.90;99.90;;;;;;4974898;28;20172;-34
2023/08/28 05:06:32;;;;;;;4.13;3.27;;;14.90;99.90;;;;;;4978403;28;20192;-34
2023/08/28 05:08:58;;;;;;;3.47;3.17;;;14.90;99.90;;;;;;4975289;28;20180;-35
2023/08/28 05:11:24;;;;;;;3.83;3.37;;;14.90;99.90;;;;;;4977901;28;20202;-34
2023/08/28 05:13:51;;;;;;;3.70;3.40;;;14.80;99.90;;;;;;4980520;28;20191;-35
2023/08/28 05:16:17;;;;;;;3.40;3.10;;;14.80;99.90;;;;;;4974669;28;20219;-34
2023/08/28 05:18:43;;;;;;;3.80;3.50;;;14.70;99.90;;;;;;4965086;28;20226;-33
2023/08/28 05:21:08;;;;;;;6.33;4.20;;;14.70;99.90;;;;;;4977611;28;20211;-34
2023/08/28 05:23:34;;;;;;;4.50;3.80;;;14.80;99.90;;;;;;4988817;28;20218;-36
2023/08/28 05:26:00;;;;;;;3.70;3.40;;;14.80;99.90;;;;;;4974448;28;20179;-34
2023/08/28 05:28:31;;;;;;;4.73;3.60;;;14.80;99.90;;;;;;4973330;28;20198;-34
2023/08/28 05:30:58;;;;;;;4.33;3.60;;;14.90;99.90;;;;;;4992326;28;20199;-34
2023/08/28 05:33:24;;;;;;;3.70;3.40;;;14.90;99.90;;;;;;4982439;28;20238;-34
2023/08/28 05:35:50;;;;;;;6.37;3.40;;;15.00;99.90;;;;;;4967025;28;20184;-35
2023/08/28 05:38:16;;;;;;;5.10;3.67;;;15.00;99.90;;;;;;4977384;28;20211;-35
2023/08/28 05:40:45;;;;;;;5.43;3.30;;;15.00;99.90;;;;;;4976783;28;20258;-36
2023/08/28 05:43:13;;;;;;;4.80;3.50;;;15.00;99.90;;;;;;4975207;28;20195;-34
2023/08/28 05:45:38;;;;;;;3.40;3.20;;;15.00;99.90;;;;;;4977557;28;20179;-33
2023/08/28 05:48:05;;;;;;;3.80;3.50;;;15.00;99.90;;;;;;4981154;28;20183;-35
2023/08/28 05:50:31;;;;;;;3.97;3.37;;;15.00;99.90;;;;;;4975409;28;20203;-34
2023/08/28 05:53:00;;;;;;;3.50;3.20;;;15.00;99.90;;;;;;4958792;28;20651;-35
2023/08/28 05:55:27;;;;;;;4.30;3.90;;;15.00;99.90;;;;;;4982321;28;20304;-34
2023/08/28 05:57:53;;;;;;;3.63;3.33;;;15.00;99.90;;;;;;4979853;28;20267;-34
2023/08/28 06:00:18;;;;;;;5.20;3.37;;;15.00;99.90;;;;;;4975872;28;20307;-34
2023/08/28 06:02:45;;;;;;;3.13;2.87;;;14.90;99.90;;;;;;4974780;28;20187;-35
2023/08/28 06:05:11;;;;;;;4.10;3.27;;;15.00;99.90;;;;;;5004074;28;20190;-35
2023/08/28 06:07:37;;;;;;;6.37;3.20;;;15.00;99.90;;;;;;4984951;28;20194;-35
2023/08/28 06:10:05;;;;;;;3.20;2.90;;;15.00;99.90;;;;;;5017235;28;20203;-34
2023/08/28 06:12:31;;;;;;;5.10;3.00;;;15.00;99.90;;;;;;5007815;28;20256;-34
2023/08/28 06:14:57;;;;;;;4.83;3.00;;;15.00;99.90;;;;;;4981935;28;20183;-36
2023/08/28 06:17:24;;;;;;;3.17;2.83;;;15.00;99.90;;;;;;4980380;28;20211;-36
2023/08/28 06:19:50;;;;;;;3.23;2.93;;;15.10;99.90;;;;;;4979879;28;20215;-34
2023/08/28 06:22:19;;;;;;;3.17;2.83;;;15.10;99.90;;;;;;4981271;28;20210;-34
2023/08/28 06:24:50;;;;;;;3.30;2.67;;;15.10;99.90;;;;;;4981092;28;20183;-35
2023/08/28 06:27:16;;;;;;;3.60;2.30;;;15.10;99.90;;;;;;4980232;28;20186;-34
2023/08/28 06:29:42;;;;;;;3.63;2.20;;;15.10;99.90;;;;;;4978114;28;20204;-36
2023/08/28 06:32:08;;;;;;;2.50;2.27;;;15.20;99.90;;;;;;5013575;28;20191;-34
2023/08/28 06:34:34;;;;;;;2.63;2.43;;;15.10;99.90;;;;;;4980920;28;20194;-34
2023/08/28 06:36:59;;;;;;;3.77;2.33;;;15.20;99.90;;;;;;4996519;28;20235;-35
2023/08/28 06:39:26;;;;;;;2.90;2.70;;;15.20;99.90;;;;;;4997011;28;20196;-36
2023/08/28 06:41:52;;;;;;;3.17;2.37;;;15.20;99.90;;;;;;4963557;28;20211;-35
2023/08/28 06:44:19;;;;;;;2.33;2.13;;;15.20;99.90;;;;;;4990668;28;20178;-34
2023/08/28 06:46:45;;;;;;;2.33;2.13;;;15.30;99.90;;;;;;4981741;28;20191;-34
2023/08/28 06:49:11;;;;;;;2.77;1.93;;;15.30;99.90;;;;;;4977690;28;20208;-34
2023/08/28 06:51:37;;;;;;;2.50;2.10;;;15.30;99.90;;;;;;4972361;28;20180;-33
2023/08/28 06:54:03;;;;;;;2.03;1.83;;;15.40;99.90;;;;;;4988574;28;20176;-34
2023/08/28 06:56:29;;;;;;;3.57;2.20;;;15.40;99.90;;;;;;4987971;28;20184;-36
2023/08/28 06:58:55;;;;;;;2.10;1.90;;;15.40;99.90;;;;;;4985601;28;20226;-35
2023/08/28 07:01:22;;;;;;;2.93;2.10;;;15.30;99.90;;;;;;5016227;28;20202;-34
2023/08/28 07:03:49;;;;;;;2.87;2.00;;;15.40;99.90;;;;;;5016434;28;20189;-35
2023/08/28 07:06:18;;;;;;;3.80;2.00;;;15.40;99.90;;;;;;4986539;28;20191;-34
2023/08/28 07:08:44;;;;;;;3.33;2.20;;;15.30;99.90;;;;;;4980002;28;20230;-34
2023/08/28 07:11:10;;;;;;;2.53;2.00;;;15.30;99.90;;;;;;4978974;28;20231;-35
2023/08/28 07:13:36;;;;;;;4.77;2.30;;;15.30;99.90;;;;;;4998948;28;20187;-34
2023/08/28 07:16:01;;;;;;;3.00;2.40;;;15.30;99.90;;;;;;4980063;28;20180;-34
2023/08/28 07:18:27;;;;;;;2.43;2.17;;;15.30;99.90;;;;;;4994972;28;20217;-34
2023/08/28 07:20:55;;;;;;;2.43;2.20;;;15.30;99.90;;;;;;5003492;28;20247;-35
2023/08/28 07:23:23;;;;;;;2.30;2.10;;;15.30;99.90;;;;;;4996073;28;20181;-34
2023/08/28 07:25:49;;;;;;;3.27;2.30;;;15.40;99.90;;;;;;4995907;28;20265;-34
2023/08/28 07:28:14;;;;;;;3.40;2.30;;;15.40;99.90;;;;;;5005903;28;20269;-35
2023/08/28 07:30:41;;;;;;;2.93;2.20;;;15.40;99.90;;;;;;4976888;28;20195;-34
2023/08/28 07:33:07;;;;;;;3.93;2.17;;;15.40;99.90;;;;;;4984384;28;20282;-34
2023/08/28 07:35:36;;;;;;;4.32;2.30;;;15.40;99.90;;;;;;4994959;28;20195;-34
2023/08/28 07:38:05;;;;;;;4.50;2.33;;;15.40;99.90;;;;;;4996127;28;20291;-34
2023/08/28 07:40:32;;;;;;;4.20;2.67;;;15.50;99.90;;;;;;4995655;28;20209;-35
2023/08/28 07:42:59;;;;;;;4.70;2.60;;;15.40;99.90;;;;;;4995294;28;20175;-34
2023/08/28 07:45:25;;;;;;;5.65;2.78;;;15.40;99.90;;;;;;4978582;28;20183;-35
2023/08/28 07:47:51;;;;;;;3.30;2.50;;;15.40;99.90;;;;;;4981369;28;20250;-35
2023/08/28 07:50:17;;;;;;;5.73;2.77;;;15.50;99.90;;;;;;4973232;28;20269;-34
2023/08/28 07:52:45;;;;;;;4.00;2.50;;;15.50;99.90;;;;;;4979462;28;20191;-35
2023/08/28 07:55:11;;;;;;;2.60;2.40;;;15.60;99.90;;;;;;4995417;28;20295;-34
2023/08/28 07:57:37;;;;;;;3.10;2.60;;;15.60;99.90;;;;;;4978053;28;20302;-34
2023/08/28 08:00:07;;;;;;;5.23;3.00;;;15.60;99.90;;;;;;4979403;28;20209;-36
2023/08/28 08:02:38;;;;;;;2.80;2.30;;;15.60;99.90;;;;;;4996429;28;20229;-33
2023/08/28 08:05:05;;;;;;;3.47;2.90;;;15.70;99.90;;;;;;4989970;28;20220;-34
2023/08/28 08:07:32;;;;;;;4.53;2.80;;;15.70;99.90;;;;;;4995966;28;20286;-34
2023/08/28 08:09:58;;;;;;;4.40;2.77;;;15.70;99.90;;;;;;4979040;28;20203;-34
2023/08/28 08:12:26;;;;;;;3.53;2.50;;;15.70;99.90;;;;;;4978339;28;20179;-36
2023/08/28 08:14:52;;;;;;;3.43;2.63;;;15.70;99.90;;;;;;4995307;28;20212;-34
2023/08/28 08:17:18;;;;;;;2.80;2.60;;;15.70;99.90;;;;;;4977101;28;20203;-34
2023/08/28 08:19:44;;;;;;;4.80;2.72;;;15.80;99.90;;;;;;4975766;28;20269;-34
2023/08/28 08:22:11;;;;;;;3.20;2.57;;;15.90;99.90;;;;;;4977273;28;20176;-34
2023/08/28 08:24:37;;;;;;;4.35;2.60;;;16.00;99.90;;;;;;4979067;28;20179;-34
2023/08/28 08:27:04;;;;;;;4.78;2.80;;;16.00;99.90;;;;;;5011895;28;20187;-34
2023/08/28 08:29:30;;;;;;;3.17;2.60;;;16.10;99.90;;;;;;4977291;28;20278;-34
2023/08/28 08:31:56;;;;;;;4.07;2.35;;;16.00;99.90;;;;;;4978655;28;20179;-35
2023/08/28 08:34:22;;;;;;;3.38;2.10;;;16.00;99.90;;;;;;4975317;28;20188;-35
2023/08/28 08:36:48;;;;;;;3.17;2.63;;;16.10;99.90;;;;;;4971452;28;20317;-34
2023/08/28 08:39:14;;;;;;;3.75;2.63;;;16.10;99.90;;;;;;4997507;28;20179;-35
2023/08/28 08:41:41;;;;;;;3.42;2.60;;;16.10;99.90;;;;;;4978571;28;20194;-35
2023/08/28 08:44:07;;;;;;;4.55;2.70;;;16.10;99.90;;;;;;4980846;28;20210;-35
2023/08/28 08:46:34;;;;;;;2.87;2.60;;;16.10;99.90;;;;;;4999772;28;20207;-36
2023/08/28 08:49:02;;;;;;;3.78;2.47;;;16.10;99.90;;;;;;4992551;28;20187;-35
2023/08/28 08:51:30;;;;;;;3.17;2.65;;;16.10;99.90;;;;;;4995062;28;20183;-35
2023/08/28 08:53:56;;;;;;;2.60;2.40;;;16.10;99.90;;;;;;4978360;28;20277;-34
2023/08/28 08:56:23;;;;;;;3.42;2.85;;;16.10;99.90;;;;;;4974904;28;20259;-34
2023/08/28 08:58:50;;;;;;;3.80;2.70;;;16.10;99.90;;;;;;4981818;28;20207;-34
2023/08/28 09:01:17;;;;;;;4.32;3.17;;;16.20;99.90;;;;;;4968346;28;20203;-34
2023/08/28 09:03:44;;;;;;;5.70;3.03;;;16.20;99.90;;;;;;4986144;28;20194;-34
2023/08/28 09:06:11;;;;;;;4.18;2.95;;;16.20;99.90;;;;;;4982511;28;20184;-34
2023/08/28 09:08:40;;;;;;;4.00;2.70;;;16.20;99.90;;;;;;4978344;28;20276;-34
2023/08/28 09:11:06;;;;;;;4.28;2.63;;;16.20;99.90;;;;;;4974527;28;20211;-36
2023/08/28 09:13:33;;;;;;;3.00;2.70;;;16.30;99.90;;;;;;4974495;28;20199;-35
2023/08/28 09:15:59;;;;;;;3.10;2.63;;;16.20;99.90;;;;;;4994343;28;20261;-34
2023/08/28 09:18:25;;;;;;;2.83;2.63;;;16.30;99.90;;;;;;4977755;28;20198;-34
2023/08/28 09:21:11;;;;;;;4.30;2.53;;;16.50;99.90;;;;;;4994069;28;20301;-34
2023/08/28 09:23:44;;;;;;;3.33;3.03;;;16.50;99.90;;;;;;4977249;28;20187;-34
2023/08/28 09:26:18;;;;;;;4.25;2.60;;;16.50;99.90;;;;;;4981911;28;20274;-35
2023/08/28 09:29:19;;;;;;;2.90;2.63;;;16.60;99.90;;;;;;4972944;28;20206;-36
2023/08/28 09:31:46;;;;;;;3.25;2.58;;;16.50;99.90;;;;;;4953199;28;20332;-34
2023/08/28 09:34:13;;;;;;;2.63;2.25;;;16.50;99.90;;;;;;4976891;28;20172;-35
2023/08/28 09:36:40;;;;;;;2.67;2.40;;;16.50;99.90;;;;;;4993032;28;20191;-34
2023/08/28 09:39:06;;;;;;;3.60;2.67;;;16.50;99.90;;;;;;4979443;28;20207;-34
2023/08/28 09:41:41;;;;;;;4.65;2.50;;;16.60;99.90;;;;;;4985788;28;20179;-34
2023/08/28 09:44:07;;;;;;;2.63;2.42;;;16.60;99.90;;;;;;4992918;28;20189;-34
2023/08/28 09:46:36;;;;;;;3.25;2.25;;;16.70;99.90;;;;;;4974162;28;20191;-35
2023/08/28 09:49:02;;;;;;;3.92;2.30;;;16.90;99.90;;;;;;4975668;28;20237;-35
2023/08/28 09:51:40;;;;;;;3.72;2.30;;;17.00;99.90;;;;;;4975812;28;20187;-34
2023/08/28 09:54:06;;;;;;;2.38;1.90;;;17.10;99.90;;;;;;4993013;28;20218;-35
2023/08/28 09:56:32;;;;;;;2.92;1.90;;;17.10;99.90;;;;;;4973780;28;20190;-35
2023/08/28 09:58:58;;;;;;;3.05;2.30;;;17.10;99.90;;;;;;4976971;28;20214;-34
2023/08/28 10:01:28;;;;;;;2.63;2.03;;;17.00;99.90;;;;;;4977804;28;20196;-34
2023/08/28 10:03:55;;;;;;;2.83;2.13;;;16.90;99.90;;;;;;5002102;28;20194;-35
2023/08/28 10:06:22;;;;;;;3.83;2.33;;;17.00;99.90;;;;;;5001025;28;20186;-34
2023/08/28 10:08:49;;;;;;;2.22;2.03;;;17.00;99.90;;;;;;4992196;28;20195;-35
2023/08/28 10:11:15;;;;;;;2.35;1.95;;;17.00;99.90;;;;;;4969290;28;20230;-35
2023/08/28 10:13:41;;;;;;;1.80;1.65;;;17.00;99.90;;;;;;4976707;28;20183;-34
2023/08/28 10:16:12;;;;;;;2.45;2.10;;;17.10;99.90;;;;;;4993372;28;20207;-35
2023/08/28 10:18:39;;;;;;;5.25;1.88;;;17.10;99.90;;;;;;4985221;28;20215;-34
2023/08/28 10:21:07;;;;;;;2.40;1.67;;;17.00;99.90;;;;;;4988627;28;20301;-34
2023/08/28 10:23:35;;;;;;;3.38;2.05;;;17.10;99.90;;;;;;4969473;28;20178;-35
2023/08/28 10:26:02;;;;;;;3.88;1.90;;;17.20;99.90;;;;;;4993292;28;20184;-34
2023/08/28 10:28:30;;;;;;;4.97;1.80;;;17.20;99.90;;;;;;4978786;28;20187;-35
2023/08/28 10:30:57;;;;;;;1.85;1.55;;;17.30;99.90;;;;;;4974246;28;20207;-35
2023/08/28 10:33:23;;;;;;;2.15;1.73;;;17.30;99.90;;;;;;4977138;28;20183;-34
2023/08/28 10:35:54;;;;;;;2.35;1.70;;;17.30;99.90;;;;;;4985894;28;20191;-35
2023/08/28 10:38:21;;;;;;;2.15;1.63;;;17.20;99.90;;;;;;4985437;28;20207;-34
2023/08/28 10:40:49;;;;;;;3.28;1.48;;;17.30;99.90;;;;;;4977140;28;20290;-34
2023/08/28 10:43:17;;;;;;;3.55;1.65;;;17.30;99.90;;;;;;4981253;28;20187;-34
2023/08/28 10:45:44;;;;;;;1.70;1.58;;;17.20;99.90;;;;;;4990806;28;20191;-35
2023/08/28 10:48:10;;;;;;;1.98;1.77;;;17.10;99.90;;;;;;4989012;28;20231;-35
2023/08/28 10:50:39;;;;;;;1.77;1.67;;;17.10;99.90;;;;;;4996909;28;20203;-35
2023/08/28 10:53:05;;;;;;;2.08;1.60;;;17.20;99.90;;;;;;4996593;28;20187;-34
2023/08/28 10:55:55;;;;;;;3.78;1.80;;;17.40;99.90;;;;;;4980110;28;20250;-35
2023/08/28 10:58:22;;;;;;;1.90;1.70;;;17.30;99.90;;;;;;4985076;28;20269;-34
2023/08/28 11:01:16;;;;;;;2.10;1.90;;;17.20;99.90;;;;;;4980973;28;20268;-34
2023/08/28 11:03:51;;;;;;;2.17;1.55;;;17.20;99.90;;;;;;4983836;28;20203;-35
2023/08/28 11:06:46;;;;;;;2.80;1.85;;;17.20;99.90;;;;;;4995944;28;20187;-35
2023/08/28 11:09:27;;;;;;;1.67;1.48;;;17.40;99.90;;;;;;4956471;28;20334;-36
2023/08/28 11:12:00;;;;;;;1.90;1.60;;;17.40;99.90;;;;;;4977192;28;20184;-34
2023/08/28 11:14:33;;;;;;;3.25;1.90;;;17.40;99.90;;;;;;4973415;28;20190;-34
2023/08/28 11:17:13;;;;;;;2.58;1.63;;;17.40;99.90;;;;;;4980658;28;20195;-35
2023/08/28 11:19:53;;;;;;;2.03;1.77;;;17.40;99.90;;;;;;4980461;28;20207;-35
2023/08/28 11:22:29;;;;;;;2.08;1.40;;;17.30;99.90;;;;;;4983360;28;20266;-34
2023/08/28 11:24:55;;;;;;;2.08;1.75;;;17.30;99.90;;;;;;4981567;28;20254;-34
2023/08/28 11:27:41;;;;;;;4.28;1.40;;;17.30;99.90;;;;;;4987224;28;20198;-34
2023/08/28 11:30:08;;;;;;;1.88;1.50;;;17.40;99.90;;;;;;4984052;28;20203;-34
2023/08/28 11:32:39;;;;;;;1.98;1.45;;;17.50;99.90;;;;;;4989712;28;20183;-35
2023/08/28 11:35:10;;;;;;;2.22;1.42;;;17.50;99.90;;;;;;5012929;28;20186;-34
2023/08/28 11:37:41;;;;;;;1.92;1.70;;;17.50;99.90;;;;;;4995984;28;20205;-35
2023/08/28 11:40:09;;;;;;;2.20;1.90;;;17.50;99.90;;;;;;4995715;28;20661;-36
2023/08/28 11:42:36;;;;;;;2.67;1.90;;;17.50;99.90;;;;;;4977330;28;20180;-34
2023/08/28 11:45:06;;;;;;;2.08;1.40;;;17.40;99.90;;;;;;4976028;28;20187;-33
2023/08/28 11:47:33;;;;;;;2.53;1.92;;;17.40;99.90;;;;;;4977681;28;20191;-34
2023/08/28 11:50:00;;;;;;;2.65;1.80;;;17.20;99.90;;;;;;4995735;28;20234;-34
2023/08/28 11:52:26;;;;;;;2.33;2.10;;;17.20;99.90;;;;;;4976527;28;20188;-34
2023/08/28 11:54:59;;;;;;;3.75;1.95;;;17.10;99.90;;;;;;4985712;28;20188;-34
2023/08/28 11:57:26;;;;;;;4.30;2.08;;;17.10;99.90;;;;;;4974689;28;20207;-34
2023/08/28 11:59:54;;;;;;;3.95;1.90;;;17.10;99.90;;;;;;4995392;28;20199;-33
2023/08/28 12:02:20;;;;;;;3.25;2.20;;;17.10;99.90;;;;;;4979011;28;20176;-34
2023/08/28 12:04:51;;;;;;;3.33;1.88;;;17.10;99.90;;;;;;4987624;28;20279;-35
2023/08/28 12:07:18;;;;;;;2.65;1.98;;;17.10;99.90;;;;;;4978803;28;20191;-34
2023/08/28 12:09:46;;;;;;;2.30;1.95;;;17.00;99.90;;;;;;4995383;28;20211;-34
2023/08/28 12:12:14;;;;;;;3.55;1.70;;;16.90;99.90;;;;;;4977535;28;20258;-34
2023/08/28 12:14:49;;;;;;;3.13;1.92;;;16.80;99.90;;;;;;4987231;28;20183;-33
2023/08/28 12:17:21;;;;;;;3.03;1.73;;;16.70;99.90;;;;;;4997312;28;20198;-34
2023/08/28 12:19:50;;;;;;;2.65;2.03;;;16.70;99.90;;;;;;4999379;28;20219;-33
2023/08/28 12:22:17;;;;;;;3.10;2.05;;;16.70;99.90;;;;;;4978870;28;20194;-36
2023/08/28 12:24:44;;;;;;;2.45;2.25;;;16.60;99.90;;;;;;4977001;28;20206;-36
2023/08/28 12:27:12;;;;;;;4.40;2.00;;;16.70;99.90;;;;;;4982416;28;20176;-33
2023/08/28 12:29:41;;;;;;;2.97;1.80;;;16.80;99.90;;;;;;4995216;28;20210;-35
2023/08/28 12:32:18;;;;;;;2.65;2.10;;;16.90;99.90;;;;;;4982513;28;20267;-35
2023/08/28 12:34:45;;;;;;;3.60;1.98;;;17.00;99.90;;;;;;4975402;28;20207;-34
2023/08/28 12:37:13;;;;;;;3.10;1.60;;;16.90;99.90;;;;;;4977497;28;20179;-34
2023/08/28 12:39:52;;;;;;;3.65;1.65;;;16.90;99.90;;;;;;5000031;28;20206;-33
2023/08/28 12:42:22;;;;;;;3.38;1.58;;;16.90;99.90;;;;;;4986996;28;20299;-35
2023/08/28 12:44:48;;;;;;;1.40;1.30;;;16.80;99.90;;;;;;4994824;28;20175;-34
2023/08/28 12:47:17;;;;;;;2.97;1.98;;;16.80;99.90;;;;;;4975044;28;20180;-35
2023/08/28 12:49:44;;;;;;;3.58;2.00;;;16.80;99.90;;;;;;4972938;28;20203;-34
2023/08/28 12:52:10;;;;;;;4.65;1.95;;;16.80;99.90;;;;;;4975250;28;20179;-34